Time;durP1;ratioP1;P1;durP2;ratioP2;P2;SDS_P1;SDS_P2;PMS_P1;PMS_P2;Temp;Humidity;BMP_temperature;BMP_pressure;BME280_temperature;BME280_humidity;BME280_pressure;Samples;Min_cycle;Max_cycle;Signal;HPM_P1;HPM_P2
2021/01/25 00:03:42;;;;;;;7.85;7.03;;;;;;;2.71;67.93;98552.22;10501239;28;20063;-71
2021/01/25 00:08:43;;;;;;;8.13;7.38;;;;;;;2.73;68.10;98547.72;10503974;28;20104;-69
2021/01/25 00:13:44;;;;;;;7.80;6.53;;;;;;;2.57;67.96;98537.50;10506265;28;20588;-69
2021/01/25 00:18:45;;;;;;;11.60;7.43;;;;;;;2.64;68.23;98533.47;10529739;28;20049;-69
2021/01/25 00:23:47;;;;;;;7.78;6.95;;;;;;;2.73;68.82;98550.34;10534812;28;20079;-70
2021/01/25 00:28:48;;;;;;;8.05;6.18;;;;;;;2.75;68.08;98534.47;10540994;28;20048;-71
2021/01/25 00:33:49;;;;;;;7.15;5.75;;;;;;;2.59;68.51;98519.84;10559718;22;20379;-59
2021/01/25 00:38:50;;;;;;;7.50;6.70;;;;;;;2.58;69.33;98518.19;10533067;27;20068;-58
2021/01/25 00:43:51;;;;;;;6.32;5.63;;;;;;;2.66;69.53;98520.22;10519678;27;20062;-57
2021/01/25 00:48:53;;;;;;;8.73;5.90;;;;;;;2.71;68.44;98518.06;10518567;27;20066;-59
2021/01/25 00:53:54;;;;;;;6.35;5.78;;;;;;;2.73;69.17;98520.59;10523563;27;20071;-58
2021/01/25 00:58:55;;;;;;;6.55;5.80;;;;;;;2.58;68.55;98517.31;10524518;27;20051;-58
2021/01/25 01:03:56;;;;;;;7.20;6.50;;;;;;;2.69;69.98;98525.25;10510511;27;20040;-58
2021/01/25 01:08:57;;;;;;;6.47;5.60;;;;;;;2.64;70.15;98527.38;10512940;27;20044;-58
2021/01/25 01:13:59;;;;;;;6.43;5.45;;;;;;;2.55;69.92;98521.03;10521442;27;20182;-58
2021/01/25 01:19:00;;;;;;;8.15;7.30;;;;;;;2.60;71.11;98532.03;10519332;27;20073;-57
2021/01/25 01:24:03;;;;;;;6.43;5.30;;;;;;;2.37;71.10;98504.88;10516287;27;20051;-57
2021/01/25 01:29:04;;;;;;;6.03;5.10;;;;;;;2.51;71.34;98531.84;10513880;27;20144;-59
2021/01/25 01:34:06;;;;;;;5.82;5.32;;;;;;;2.46;71.26;98537.47;10516219;27;20411;-58
2021/01/25 01:39:07;;;;;;;5.65;5.15;;;;;;;2.39;72.00;98523.97;10513683;27;20127;-58
2021/01/25 01:44:10;;;;;;;6.25;5.53;;;;;;;2.42;72.71;98528.16;10520907;27;20044;-57
2021/01/25 01:49:11;;;;;;;7.97;5.70;;;;;;;2.52;72.31;98523.03;10519427;27;20084;-57
2021/01/25 01:54:14;;;;;;;7.13;6.43;;;;;;;2.56;72.79;98522.69;10518344;27;20121;-58
2021/01/25 01:59:15;;;;;;;6.70;5.65;;;;;;;2.55;72.67;98517.56;10517433;27;20100;-57
2021/01/25 02:04:17;;;;;;;6.55;5.95;;;;;;;2.60;72.56;98526.78;10513606;27;20044;-57
2021/01/25 02:09:18;;;;;;;7.10;5.90;;;;;;;2.47;72.90;98520.75;10515463;27;20316;-58
2021/01/25 02:14:20;;;;;;;6.70;6.07;;;;;;;2.51;72.84;98526.59;10512594;27;20059;-60
2021/01/25 02:19:47;;;;;;;7.30;5.72;;;;;;;2.59;72.85;98525.09;10519146;27;20279;-58
2021/01/25 02:25:14;;;;;;;7.85;6.45;;;;;;;2.64;72.68;98524.75;10522950;27;20039;-57
2021/01/25 02:30:16;;;;;;;7.30;6.60;;;;;;;2.52;73.00;98533.53;10515213;27;20531;-58
2021/01/25 02:35:18;;;;;;;7.35;6.50;;;;;;;2.44;73.47;98532.31;10516922;27;20097;-58
2021/01/25 02:40:21;;;;;;;9.07;6.30;;;;;;;2.45;73.77;98534.00;10518925;27;20052;-58
2021/01/25 02:45:23;;;;;;;10.52;6.85;;;;;;;2.44;74.46;98534.94;10493599;27;20055;-58
2021/01/25 02:50:31;;;;;;;6.70;6.07;;;;;;;2.43;74.43;98529.81;10375129;27;20363;-57
2021/01/25 02:55:33;;;;;;;8.90;6.75;;;;;;;2.43;74.46;98525.41;10331168;28;20046;-58
2021/01/25 03:00:34;;;;;;;8.05;6.95;;;;;;;2.45;73.99;98525.31;10359460;28;20057;-58
2021/01/25 03:05:36;;;;;;;6.35;5.70;;;;;;;2.42;74.16;98509.78;10372590;28;20050;-58
2021/01/25 03:10:37;;;;;;;7.43;6.28;;;;;;;2.52;74.39;98523.88;10361553;28;20135;-57
2021/01/25 03:15:39;;;;;;;8.70;6.22;;;;;;;2.52;74.98;98518.63;10358771;28;20093;-57
2021/01/25 03:20:41;;;;;;;7.28;6.57;;;;;;;2.54;74.63;98511.47;10329353;28;20127;-58
2021/01/25 03:25:42;;;;;;;7.45;6.75;;;;;;;2.60;74.54;98515.44;10311697;28;20141;-57
2021/01/25 03:30:43;;;;;;;6.85;6.10;;;;;;;2.53;74.46;98514.22;10320000;28;20574;-61
2021/01/25 03:35:44;;;;;;;6.30;5.70;;;;;;;2.53;74.05;98519.47;10312027;28;20051;-56
2021/01/25 03:40:46;;;;;;;5.63;5.13;;;;;;;2.56;73.83;98519.25;10320128;28;20054;-57
2021/01/25 03:45:47;;;;;;;5.20;4.72;;;;;;;2.55;73.13;98517.56;10318799;28;20060;-57
2021/01/25 03:50:48;;;;;;;5.50;4.88;;;;;;;2.51;73.38;98511.72;10320200;28;20046;-57
2021/01/25 03:55:50;;;;;;;5.47;4.05;;;;;;;2.56;72.81;98509.56;10317580;28;20054;-59
2021/01/25 04:00:51;;;;;;;5.03;4.53;;;;;;;2.49;73.39;98508.34;10340703;28;20445;-56
2021/01/25 04:05:53;;;;;;;6.43;5.82;;;;;;;2.53;73.07;98515.03;10337675;28;20060;-59
2021/01/25 04:10:54;;;;;;;7.70;5.43;;;;;;;2.54;73.17;98518.50;10336129;28;20109;-59
2021/01/25 04:15:55;;;;;;;6.10;5.53;;;;;;;2.52;73.83;98528.28;10341031;28;20069;-57
2021/01/25 04:20:56;;;;;;;6.25;5.05;;;;;;;2.46;74.03;98524.31;10338974;28;20537;-59
2021/01/25 04:25:58;;;;;;;7.28;4.97;;;;;;;2.39;74.86;98518.72;10339054;28;20077;-59
2021/01/25 04:30:59;;;;;;;7.32;5.57;;;;;;;2.50;75.14;98527.59;10341087;28;20128;-56
2021/01/25 04:36:01;;;;;;;8.15;5.63;;;;;;;2.48;74.66;98536.41;10335690;28;20069;-59
2021/01/25 04:41:03;;;;;;;6.70;6.03;;;;;;;2.48;74.94;98525.91;10337196;28;20128;-58
2021/01/25 04:46:04;;;;;;;6.82;5.35;;;;;;;2.44;74.73;98521.81;10335052;28;20050;-56
2021/01/25 04:51:06;;;;;;;7.43;6.03;;;;;;;2.35;75.50;98521.69;10339239;28;20771;-59
2021/01/25 04:56:08;;;;;;;6.50;5.82;;;;;;;2.40;75.02;98530.91;10337989;28;20056;-57
2021/01/25 05:01:10;;;;;;;8.38;6.00;;;;;;;2.43;75.44;98541.16;10335313;28;20054;-55
2021/01/25 05:06:11;;;;;;;8.77;7.40;;;;;;;2.42;75.43;98549.16;10331030;28;20054;-61
2021/01/25 05:11:16;;;;;;;7.80;7.00;;;;;;;2.41;75.69;98548.31;10334529;28;20049;-59
2021/01/25 05:16:19;;;;;;;;;;;;;;;2.37;75.89;98554.75;10336080;28;20054;-57
2021/01/25 05:21:43;;;;;;;8.80;7.82;;;;;;;2.38;75.83;98548.53;10334880;28;19926;-59
2021/01/25 05:27:01;;;;;;;8.05;7.13;;;;;;;2.26;75.70;98549.44;10334618;28;20597;-62
2021/01/25 05:32:09;;;;;;;7.93;7.10;;;;;;;2.29;76.04;98550.03;10338771;28;20059;-62
2021/01/25 05:37:18;;;;;;;7.70;6.95;;;;;;;2.30;75.94;98556.16;10333478;28;20088;-58
2021/01/25 05:42:20;;;;;;;8.38;7.57;;;;;;;2.17;76.32;98550.13;10338185;28;20034;-59
2021/01/25 05:47:21;;;;;;;8.85;7.55;;;;;;;2.25;76.32;98553.00;10335588;28;22380;-57
2021/01/25 05:52:22;;;;;;;8.82;7.90;;;;;;;2.23;76.17;98552.31;10333830;28;20839;-59
2021/01/25 05:57:24;;;;;;;7.50;6.78;;;;;;;2.30;75.97;98566.66;10333164;28;20483;-57
2021/01/25 06:02:25;;;;;;;9.77;7.38;;;;;;;2.26;76.12;98565.19;10335090;28;20104;-61
2021/01/25 06:07:28;;;;;;;9.85;8.68;;;;;;;2.37;75.96;98567.03;10326437;28;20121;-60
2021/01/25 06:12:37;;;;;;;9.48;7.78;;;;;;;2.43;75.65;98577.94;10309474;28;20062;-57
2021/01/25 06:17:38;;;;;;;9.43;7.70;;;;;;;2.42;75.58;98581.50;10317539;28;20504;-56
2021/01/25 06:22:42;;;;;;;9.90;8.05;;;;;;;2.47;75.42;98582.00;10315966;28;20052;-61
2021/01/25 06:27:45;;;;;;;10.40;8.70;;;;;;;2.46;75.49;98590.84;10322015;28;20457;-56
2021/01/25 06:32:46;;;;;;;10.68;8.85;;;;;;;2.45;75.53;98589.16;10324364;28;20069;-58
2021/01/25 06:37:53;;;;;;;15.27;9.20;;;;;;;2.51;75.30;98600.16;10309885;23;20054;-57
2021/01/25 06:42:55;;;;;;;9.70;8.15;;;;;;;2.50;75.02;98604.56;10296291;28;20050;-57
2021/01/25 06:47:56;;;;;;;10.80;8.80;;;;;;;2.44;75.12;98605.84;10293789;28;20056;-58
2021/01/25 06:52:59;;;;;;;9.60;8.57;;;;;;;2.44;75.80;98605.84;10295951;28;20047;-57
2021/01/25 06:58:08;;;;;;;11.30;8.48;;;;;;;2.51;75.43;98608.03;10299251;28;20596;-58
2021/01/25 07:03:19;;;;;;;10.27;9.18;;;;;;;2.51;75.71;98616.78;10298372;28;20050;-57
2021/01/25 07:08:25;;;;;;;9.52;8.52;;;;;;;2.49;75.86;98623.91;10294936;28;20628;-57
2021/01/25 07:13:34;;;;;;;21.60;10.75;;;;;;;2.64;75.86;98638.56;10293059;28;20070;-57
2021/01/25 07:18:35;;;;;;;13.48;10.02;;;;;;;2.74;74.95;98643.97;10294103;28;20054;-59
2021/01/25 07:23:40;;;;;;;11.07;8.88;;;;;;;2.74;74.89;98649.22;10293363;28;20050;-57
2021/01/25 07:28:42;;;;;;;11.57;10.43;;;;;;;2.80;74.70;98648.75;10292244;28;20479;-57
2021/01/25 07:33:44;;;;;;;14.48;9.80;;;;;;;2.73;75.27;98658.06;10296699;28;20070;-58
2021/01/25 07:38:46;;;;;;;11.32;9.55;;;;;;;2.70;75.28;98658.28;10304510;28;20127;-57
2021/01/25 07:43:48;;;;;;;13.05;10.13;;;;;;;2.71;75.18;98670.47;10304795;28;20261;-58
2021/01/25 07:48:51;;;;;;;15.65;10.52;;;;;;;2.69;75.07;98682.88;10302871;28;20046;-58
2021/01/25 07:53:54;;;;;;;12.40;10.82;;;;;;;2.72;75.36;98677.41;10297325;28;20049;-58
2021/01/25 07:59:05;;;;;;;9.95;8.95;;;;;;;2.72;75.55;98692.31;10301121;28;20705;-57
2021/01/25 08:04:11;;;;;;;14.07;10.30;;;;;;;2.70;74.85;98695.06;10303100;28;20712;-57
2021/01/25 08:09:18;;;;;;;12.55;10.57;;;;;;;2.69;75.69;98703.91;10296474;28;20073;-58
2021/01/25 08:14:28;;;;;;;13.80;10.68;;;;;;;2.67;76.01;98703.16;10307344;28;20050;-58
2021/01/25 08:19:45;;;;;;;12.32;10.55;;;;;;;2.75;76.50;98708.72;10301244;28;20507;-58
2021/01/25 08:24:56;;;;;;;15.30;10.45;;;;;;;2.56;76.30;98706.56;10303063;28;20131;-56
2021/01/25 08:30:04;;;;;;;11.35;10.20;;;;;;;2.63;76.38;98720.13;10300540;28;20085;-57
2021/01/25 08:35:06;;;;;;;13.02;10.18;;;;;;;2.65;76.61;98718.22;10300159;28;20519;-57
2021/01/25 08:40:20;;;;;;;10.60;9.40;;;;;;;2.71;76.81;98730.91;10299763;28;20676;-57
2021/01/25 08:45:21;;;;;;;11.60;10.30;;;;;;;2.81;76.50;98737.19;10299315;28;20058;-58
2021/01/25 08:50:27;;;;;;;11.70;10.05;;;;;;;2.82;76.39;98738.88;10300620;28;20050;-57
2021/01/25 08:55:41;;;;;;;12.38;10.02;;;;;;;2.85;76.49;98750.09;10302933;28;20105;-57
2021/01/25 09:00:43;;;;;;;13.02;9.23;;;;;;;2.76;76.63;98746.34;10300941;28;20057;-59
2021/01/25 09:05:45;;;;;;;14.18;9.95;;;;;;;2.87;76.92;98762.19;10298994;28;20061;-57
2021/01/25 09:10:48;;;;;;;11.90;9.90;;;;;;;3.03;76.37;98772.41;10306833;28;20054;-57
2021/01/25 09:15:49;;;;;;;12.52;9.52;;;;;;;3.16;75.68;98774.97;10301162;28;20074;-56
2021/01/25 09:20:50;;;;;;;10.40;8.32;;;;;;;3.22;75.22;98786.84;10297412;28;20070;-58
2021/01/25 09:25:52;;;;;;;11.38;9.95;;;;;;;3.21;75.66;98788.63;10301125;28;20054;-56
2021/01/25 09:30:53;;;;;;;10.60;9.23;;;;;;;3.15;75.55;98784.69;10310115;28;20054;-57
2021/01/25 09:35:54;;;;;;;12.60;10.40;;;;;;;3.20;75.86;98797.47;10301729;28;20495;-56
2021/01/25 09:40:55;;;;;;;11.60;9.98;;;;;;;3.21;75.42;98801.78;10299764;28;20118;-57
2021/01/25 09:45:57;;;;;;;10.70;9.60;;;;;;;3.28;75.29;98813.53;10300734;28;20054;-57
2021/01/25 09:50:58;;;;;;;9.95;9.05;;;;;;;3.36;75.09;98829.59;10302759;28;20050;-58
2021/01/25 09:56:00;;;;;;;11.93;9.80;;;;;;;3.36;74.66;98823.47;10300776;28;20499;-57
2021/01/25 10:01:01;;;;;;;11.13;10.02;;;;;;;3.40;74.50;98832.84;10285524;28;20050;-57
2021/01/25 10:06:02;;;;;;;11.38;10.23;;;;;;;3.47;74.37;98836.69;10297609;28;20136;-58
2021/01/25 10:11:05;;;;;;;11.70;10.52;;;;;;;3.46;74.40;98848.16;10298711;28;20053;-58
2021/01/25 10:16:07;;;;;;;11.23;10.07;;;;;;;3.45;74.65;98857.03;10291509;28;20459;-57
2021/01/25 10:21:08;;;;;;;11.85;10.73;;;;;;;3.37;74.57;98859.38;10297469;28;20069;-57
2021/01/25 10:26:10;;;;;;;11.13;10.00;;;;;;;3.34;75.38;98862.22;10295244;28;20046;-57
2021/01/25 10:31:11;;;;;;;12.75;11.48;;;;;;;3.41;74.78;98873.97;10297669;28;20055;-58
2021/01/25 10:36:13;;;;;;;13.15;11.82;;;;;;;3.32;75.04;98869.41;10299207;28;20062;-58
2021/01/25 10:41:15;;;;;;;12.90;10.77;;;;;;;3.34;75.53;98878.00;10297906;28;20046;-59
2021/01/25 10:46:18;;;;;;;11.77;10.68;;;;;;;3.39;75.82;98889.00;10291628;28;20061;-57
2021/01/25 10:51:19;;;;;;;12.25;11.15;;;;;;;3.38;74.86;98884.72;10295850;28;20070;-57
2021/01/25 10:56:21;;;;;;;13.38;11.98;;;;;;;3.40;75.12;98887.25;10299060;28;20054;-57
2021/01/25 11:01:22;;;;;;;12.73;11.52;;;;;;;3.47;75.57;98899.84;10299523;28;20511;-57
2021/01/25 11:06:23;;;;;;;12.70;11.40;;;;;;;3.53;75.31;98903.81;10296721;28;20054;-58
2021/01/25 11:11:24;;;;;;;13.25;11.85;;;;;;;3.47;74.89;98920.06;10306989;28;20189;-57
2021/01/25 11:16:26;;;;;;;12.27;11.13;;;;;;;3.28;75.29;98920.53;10304775;28;20062;-57
2021/01/25 11:21:27;;;;;;;13.73;11.73;;;;;;;3.32;75.01;98911.47;10306265;28;20635;-58
2021/01/25 11:26:29;;;;;;;13.35;12.05;;;;;;;3.41;74.89;98928.38;10305179;28;20100;-57
2021/01/25 11:31:30;;;;;;;13.07;11.77;;;;;;;3.49;74.83;98923.41;10305215;28;20042;-58
2021/01/25 11:36:32;;;;;;;13.55;12.15;;;;;;;3.43;74.56;98924.69;10305258;28;20435;-58
2021/01/25 11:41:34;;;;;;;13.90;12.50;;;;;;;3.44;75.47;98929.00;10304218;28;20050;-57
2021/01/25 11:46:36;;;;;;;14.23;12.80;;;;;;;3.58;74.90;98927.16;10299411;28;20104;-57
2021/01/25 11:51:37;;;;;;;14.82;13.23;;;;;;;3.59;74.69;98934.94;10303638;28;20108;-57
2021/01/25 11:56:39;;;;;;;15.13;13.55;;;;;;;3.65;74.94;98941.56;10305256;28;20066;-57
2021/01/25 12:01:40;;;;;;;14.07;12.52;;;;;;;3.89;74.29;98947.66;10303144;28;20046;-57
2021/01/25 12:06:42;;;;;;;13.32;11.93;;;;;;;3.76;73.16;98954.75;10303827;28;20404;-56
2021/01/25 12:11:43;;;;;;;12.85;11.68;;;;;;;3.72;73.70;98945.41;10303401;28;20418;-59
2021/01/25 12:16:44;;;;;;;14.13;12.73;;;;;;;3.81;74.26;98949.16;10305162;28;20112;-58
2021/01/25 12:21:46;;;;;;;14.48;12.98;;;;;;;3.86;74.13;98957.56;10301461;28;20053;-57
2021/01/25 12:26:49;;;;;;;17.52;15.57;;;;;;;3.87;74.00;98960.09;10303806;28;20806;-57
2021/01/25 12:31:50;;;;;;;15.00;13.48;;;;;;;3.87;73.60;98968.00;10295364;28;20061;-56
2021/01/25 12:36:53;;;;;;;13.07;11.68;;;;;;;3.72;73.22;98971.72;10291490;23;20060;-59
2021/01/25 12:41:54;;;;;;;13.80;12.38;;;;;;;3.76;73.54;98973.19;10297495;28;20124;-56
2021/01/25 12:46:56;;;;;;;15.57;13.00;;;;;;;3.84;73.27;98980.53;10300284;28;20065;-57
2021/01/25 12:51:57;;;;;;;14.15;12.68;;;;;;;3.94;73.33;98980.72;10298262;28;20442;-58
2021/01/25 12:56:58;;;;;;;15.25;13.82;;;;;;;4.05;73.09;98983.38;10297975;28;20054;-61
2021/01/25 13:02:00;;;;;;;14.75;12.88;;;;;;;4.13;72.52;98996.84;10297385;28;20067;-61
2021/01/25 13:07:01;;;;;;;16.52;13.88;;;;;;;4.11;72.70;99003.16;10295945;28;20046;-58
2021/01/25 13:12:03;;;;;;;14.70;12.38;;;;;;;4.21;72.80;99012.06;10295492;28;20058;-58
2021/01/25 13:17:04;;;;;;;13.90;12.55;;;;;;;4.01;72.79;99006.47;10298103;28;20105;-58
2021/01/25 13:22:05;;;;;;;14.98;13.48;;;;;;;4.18;72.59;99025.47;10297330;28;20046;-59
2021/01/25 13:27:07;;;;;;;13.00;11.70;;;;;;;3.96;72.89;99026.19;10309855;28;20046;-55
2021/01/25 13:32:08;;;;;;;15.32;13.73;;;;;;;3.89;74.41;99042.44;10297496;28;20109;-56
2021/01/25 13:37:10;;;;;;;17.05;14.15;;;;;;;4.02;72.81;99049.44;10296212;28;20687;-59
2021/01/25 13:42:12;;;;;;;15.00;13.50;;;;;;;4.06;73.28;99053.53;10295600;28;20042;-58
2021/01/25 13:47:13;;;;;;;16.45;14.60;;;;;;;4.17;73.16;99045.66;10296043;28;20050;-57
2021/01/25 13:52:14;;;;;;;15.07;13.57;;;;;;;4.20;72.65;99056.00;10296852;28;20050;-58
2021/01/25 13:57:16;;;;;;;14.93;13.25;;;;;;;4.25;72.36;99064.41;10297076;28;20054;-57
2021/01/25 14:02:18;;;;;;;14.93;13.40;;;;;;;4.31;72.05;99072.81;10299874;28;20070;-57
2021/01/25 14:07:20;;;;;;;15.32;13.75;;;;;;;4.28;72.31;99078.28;10297726;28;20165;-56
2021/01/25 14:12:24;;;;;;;15.55;13.77;;;;;;;4.29;72.49;99080.00;10301452;28;20050;-57
2021/01/25 14:17:25;;;;;;;17.35;15.65;;;;;;;4.32;72.19;99100.84;10299920;28;20074;-57
2021/01/25 14:22:26;;;;;;;16.98;15.38;;;;;;;4.29;72.10;99101.88;10298253;28;20050;-58
2021/01/25 14:27:28;;;;;;;16.70;14.90;;;;;;;4.25;72.59;99119.72;10302447;28;20057;-57
2021/01/25 14:32:29;;;;;;;19.88;15.88;;;;;;;4.26;72.64;99115.28;10287814;28;20590;-57
2021/01/25 14:37:31;;;;;;;17.08;15.40;;;;;;;4.32;74.07;99133.28;10297137;28;20062;-59
2021/01/25 14:42:32;;;;;;;17.73;15.77;;;;;;;4.32;73.30;99143.00;10284893;28;20201;-57
2021/01/25 14:47:34;;;;;;;22.30;15.65;;;;;;;4.20;73.53;99135.03;10291818;28;20112;-57
2021/01/25 14:52:36;;;;;;;16.88;15.27;;;;;;;4.24;73.67;99152.28;10292978;28;20104;-57
2021/01/25 14:57:37;;;;;;;18.42;16.52;;;;;;;4.19;73.46;99157.06;10292787;28;20046;-56
2021/01/25 15:02:39;;;;;;;16.80;15.10;;;;;;;4.29;73.31;99174.81;10304352;28;20101;-58
2021/01/25 15:07:41;;;;;;;16.90;15.20;;;;;;;4.13;73.18;99181.19;10298171;28;20164;-57
2021/01/25 15:12:43;;;;;;;16.85;15.20;;;;;;;4.17;72.82;99198.44;10289723;28;20407;-58
2021/01/25 15:17:48;;;;;;;25.10;22.45;;;;;;;4.13;73.28;99186.47;10289521;28;20170;-58
2021/01/25 15:22:50;;;;;;;15.63;14.02;;;;;;;4.19;73.61;99199.19;10297888;28;20050;-58
2021/01/25 15:27:51;;;;;;;13.07;11.68;;;;;;;4.23;72.21;99208.56;10298619;28;20381;-57
2021/01/25 15:32:53;;;;;;;13.98;12.45;;;;;;;4.37;72.41;99217.28;10295768;28;20050;-57
2021/01/25 15:37:54;;;;;;;14.30;12.90;;;;;;;4.44;72.19;99231.69;10287971;28;20526;-56
2021/01/25 15:42:55;;;;;;;16.02;13.25;;;;;;;4.39;71.75;99250.47;10297250;28;20046;-56
2021/01/25 15:47:57;;;;;;;14.23;12.82;;;;;;;4.27;72.17;99255.78;10284254;28;20459;-56
2021/01/25 15:52:58;;;;;;;13.77;12.40;;;;;;;4.18;71.97;99263.34;10295377;28;20089;-57
2021/01/25 15:57:59;;;;;;;13.05;11.73;;;;;;;4.15;72.09;99276.75;10306413;28;20066;-57
2021/01/25 16:03:00;;;;;;;13.55;12.13;;;;;;;4.13;71.78;99291.81;10301515;28;20054;-57
2021/01/25 16:08:02;;;;;;;12.18;11.07;;;;;;;4.03;71.52;99288.13;10298842;28;20504;-57
2021/01/25 16:13:03;;;;;;;12.25;11.05;;;;;;;4.02;71.51;99299.59;10298450;28;20074;-57
2021/01/25 16:18:05;;;;;;;11.68;10.57;;;;;;;4.02;71.58;99302.25;10293727;28;20081;-57
2021/01/25 16:23:06;;;;;;;14.18;12.77;;;;;;;4.00;71.53;99309.41;10309020;28;20060;-57
2021/01/25 16:28:07;;;;;;;13.13;11.82;;;;;;;3.97;71.56;99313.09;10300421;28;21525;-57
2021/01/25 16:33:08;;;;;;;13.15;11.77;;;;;;;4.00;71.81;99328.69;10297975;28;20170;-57
2021/01/25 16:38:11;;;;;;;12.77;11.50;;;;;;;3.94;72.06;99323.00;10297677;28;20061;-61
2021/01/25 16:43:17;;;;;;;13.80;12.40;;;;;;;3.99;72.20;99342.78;10293254;28;20051;-57
2021/01/25 16:48:18;;;;;;;13.43;12.13;;;;;;;3.96;72.35;99358.78;10295344;28;20055;-59
2021/01/25 16:53:22;;;;;;;13.52;12.13;;;;;;;4.01;72.35;99369.88;10293447;28;20338;-57
2021/01/25 16:58:23;;;;;;;12.63;11.43;;;;;;;3.99;71.32;99379.66;10296520;28;20578;-58
2021/01/25 17:03:24;;;;;;;13.43;11.10;;;;;;;4.01;70.60;99390.13;10290367;28;20085;-58
2021/01/25 17:08:26;;;;;;;12.52;11.00;;;;;;;3.98;70.95;99399.06;10288992;28;20093;-57
2021/01/25 17:13:27;;;;;;;15.05;12.20;;;;;;;3.98;71.78;99414.00;10297318;28;20382;-57
2021/01/25 17:18:29;;;;;;;14.20;12.48;;;;;;;4.07;72.01;99413.41;10293263;28;20396;-59
2021/01/25 17:23:30;;;;;;;14.00;12.55;;;;;;;4.09;71.80;99416.75;10293653;28;20129;-58
2021/01/25 17:28:31;;;;;;;13.00;11.70;;;;;;;3.95;71.82;99419.47;10289939;28;20467;-58
2021/01/25 17:33:33;;;;;;;13.43;12.02;;;;;;;3.84;72.21;99412.28;10285103;28;20050;-58
2021/01/25 17:38:34;;;;;;;13.25;11.95;;;;;;;3.80;72.11;99422.19;10281129;28;20363;-58
2021/01/25 17:43:37;;;;;;;14.80;13.30;;;;;;;3.80;71.90;99432.72;10285424;28;20050;-56
2021/01/25 17:48:39;;;;;;;13.32;11.93;;;;;;;3.86;71.82;99445.47;10292168;28;20081;-59
2021/01/25 17:53:41;;;;;;;13.57;12.18;;;;;;;3.86;72.06;99458.63;10289607;28;20065;-58
2021/01/25 17:58:42;;;;;;;14.25;12.77;;;;;;;3.84;73.43;99465.81;10293673;28;20062;-58
2021/01/25 18:03:44;;;;;;;14.93;13.45;;;;;;;3.59;73.18;99463.03;10288221;28;20051;-58
2021/01/25 18:08:45;;;;;;;18.10;15.52;;;;;;;3.42;75.79;99480.75;10295266;28;20128;-58
2021/01/25 18:13:46;;;;;;;13.82;12.43;;;;;;;3.70;74.43;99481.63;10289124;28;20062;-57
2021/01/25 18:18:47;;;;;;;14.07;12.68;;;;;;;3.72;74.19;99493.75;10292467;28;20061;-57
2021/01/25 18:23:49;;;;;;;14.70;13.00;;;;;;;3.91;74.33;99515.44;10292200;28;20112;-59
2021/01/25 18:28:51;;;;;;;14.60;12.68;;;;;;;4.03;73.28;99517.25;10300783;28;20047;-58
2021/01/25 18:33:52;;;;;;;13.95;12.55;;;;;;;4.01;73.06;99516.53;10301474;28;20458;-58
2021/01/25 18:38:54;;;;;;;14.27;12.80;;;;;;;4.05;73.05;99533.78;10301596;23;20050;-73
2021/01/25 18:43:55;;;;;;;14.85;13.35;;;;;;;3.79;73.47;99538.13;10345474;28;20074;-71
2021/01/25 18:48:57;;;;;;;19.02;17.00;;;;;;;3.87;73.60;99547.22;10340147;28;20054;-71
2021/01/25 18:53:58;;;;;;;23.48;21.02;;;;;;;3.99;73.20;99552.63;10328901;28;20042;-72
2021/01/25 18:58:59;;;;;;;17.30;15.50;;;;;;;4.03;73.50;99551.50;10312323;28;20046;-72
2021/01/25 19:04:02;;;;;;;15.40;13.88;;;;;;;3.87;73.98;99557.75;10309400;28;20057;-71
2021/01/25 19:09:05;;;;;;;15.98;13.75;;;;;;;3.67;72.73;99558.16;10313935;28;20042;-72
2021/01/25 19:14:06;;;;;;;13.82;12.43;;;;;;;3.62;72.88;99571.63;10311953;28;20073;-71
2021/01/25 19:19:08;;;;;;;10.95;9.85;;;;;;;3.68;70.93;99573.03;10313051;28;20128;-71
2021/01/25 19:24:10;;;;;;;11.95;10.77;;;;;;;3.76;70.50;99591.81;10307293;28;20129;-71
2021/01/25 19:29:11;;;;;;;12.85;11.55;;;;;;;3.81;71.21;99594.13;10330789;28;20112;-72
2021/01/25 19:34:13;;;;;;;12.65;11.35;;;;;;;3.71;72.41;99607.88;10339589;28;20056;-71
2021/01/25 19:39:14;;;;;;;13.00;11.65;;;;;;;3.50;72.36;99615.31;10327462;28;20046;-72
2021/01/25 19:44:15;;;;;;;12.55;11.25;;;;;;;3.43;72.14;99635.06;10318930;28;20050;-71
2021/01/25 19:49:17;;;;;;;11.48;10.27;;;;;;;3.41;71.80;99651.84;10318518;28;20073;-72
2021/01/25 19:54:19;;;;;;;11.30;10.18;;;;;;;3.09;71.01;99658.13;10318799;28;20055;-71
2021/01/25 19:59:20;;;;;;;10.35;9.38;;;;;;;3.05;70.75;99677.66;10333582;28;20054;-71
2021/01/25 20:04:21;;;;;;;10.18;8.25;;;;;;;3.14;70.46;99684.16;10315311;28;20049;-72
2021/01/25 20:09:23;;;;;;;9.98;9.00;;;;;;;3.13;69.43;99691.19;10313084;28;20113;-72
2021/01/25 20:14:24;;;;;;;7.35;6.65;;;;;;;3.18;67.86;99689.16;10315548;28;20047;-71
2021/01/25 20:19:25;;;;;;;8.13;7.03;;;;;;;3.21;66.26;99697.78;10314895;28;20421;-72
2021/01/25 20:24:27;;;;;;;6.97;5.88;;;;;;;2.54;64.42;99687.56;10332321;28;20050;-71
2021/01/25 20:29:29;;;;;;;7.40;6.60;;;;;;;2.70;65.30;99709.41;10338773;28;20077;-71
2021/01/25 20:34:30;;;;;;;7.40;6.50;;;;;;;2.78;64.79;99717.72;10322169;28;20051;-71
2021/01/25 20:39:31;;;;;;;9.35;7.60;;;;;;;2.64;65.24;99722.91;10316255;28;20054;-70
2021/01/25 20:44:33;;;;;;;8.57;7.15;;;;;;;2.76;65.17;99731.88;10314234;28;20583;-71
2021/01/25 20:49:34;;;;;;;8.18;7.38;;;;;;;2.73;66.63;99740.81;10327772;28;20092;-71
2021/01/25 20:54:35;;;;;;;9.98;8.95;;;;;;;2.74;65.52;99742.50;10339288;28;20298;-71
2021/01/25 20:59:36;;;;;;;9.32;8.50;;;;;;;2.72;67.06;99738.25;10333429;28;20062;-71
2021/01/25 21:04:37;;;;;;;9.77;8.48;;;;;;;2.76;65.98;99753.78;10322587;28;20051;-71
2021/01/25 21:09:39;;;;;;;9.23;8.32;;;;;;;2.66;66.50;99744.72;10314579;28;20050;-73
2021/01/25 21:14:40;;;;;;;10.18;8.68;;;;;;;2.73;66.32;99751.34;10314121;28;20460;-71
2021/01/25 21:19:41;;;;;;;14.55;11.88;;;;;;;2.77;66.93;99754.63;10315137;28;20553;-70
2021/01/25 21:24:43;;;;;;;11.93;10.82;;;;;;;2.74;67.17;99770.56;10314855;28;20050;-70
2021/01/25 21:29:45;;;;;;;12.80;10.73;;;;;;;2.61;66.85;99767.75;10321621;28;20108;-71
2021/01/25 21:34:46;;;;;;;14.13;12.60;;;;;;;2.48;67.26;99767.59;10323354;28;20460;-70
2021/01/25 21:39:47;;;;;;;11.98;10.77;;;;;;;2.38;68.31;99777.75;10318987;28;20315;-70
2021/01/25 21:44:50;;;;;;;13.88;11.60;;;;;;;2.33;68.42;99779.78;10329503;28;20058;-69
2021/01/25 21:49:59;;;;;;;13.45;11.82;;;;;;;2.33;69.01;99779.78;10343412;28;20050;-70
2021/01/25 21:55:00;;;;;;;14.45;13.02;;;;;;;2.43;68.20;99790.63;10348077;28;20109;-71
2021/01/25 22:00:08;;;;;;;14.20;12.23;;;;;;;2.26;68.14;99794.16;10320563;28;20074;-69
2021/01/25 22:05:12;;;;;;;15.45;13.05;;;;;;;2.36;68.57;99800.63;10313249;28;20133;-70
2021/01/25 22:10:17;;;;;;;15.07;13.57;;;;;;;2.32;68.41;99801.72;10310893;28;20054;-69
2021/01/25 22:15:27;;;;;;;16.10;14.50;;;;;;;2.18;68.84;99802.47;10312690;28;20109;-71
2021/01/25 22:20:28;;;;;;;16.83;15.02;;;;;;;2.19;68.87;99809.41;10310759;28;20062;-70
2021/01/25 22:25:31;;;;;;;15.98;13.88;;;;;;;2.21;68.94;99818.06;10317223;28;20054;-69
2021/01/25 22:30:34;;;;;;;18.00;15.00;;;;;;;2.32;68.38;99825.34;10329968;28;20046;-73
2021/01/25 22:35:37;;;;;;;16.42;13.77;;;;;;;2.16;68.57;99830.56;10323541;28;20042;-70
2021/01/25 22:40:42;;;;;;;17.25;14.60;;;;;;;2.30;67.93;99832.50;10342621;28;20065;-71
2021/01/25 22:45:44;;;;;;;15.80;14.10;;;;;;;2.35;68.06;99834.88;10325663;28;20559;-71
2021/01/25 22:50:48;;;;;;;15.30;13.77;;;;;;;2.47;67.51;99844.72;10337290;28;20085;-70
2021/01/25 22:55:49;;;;;;;15.27;12.73;;;;;;;2.26;68.29;99830.94;10344147;28;20050;-70
2021/01/25 23:00:50;;;;;;;15.70;13.32;;;;;;;2.30;67.74;99825.44;10316867;28;20500;-70
2021/01/25 23:05:52;;;;;;;15.00;13.10;;;;;;;2.38;68.05;99834.69;10318781;28;20525;-69
2021/01/25 23:10:54;;;;;;;17.75;13.48;;;;;;;2.30;68.29;99837.75;10318156;28;20058;-70
2021/01/25 23:16:03;;;;;;;16.35;13.45;;;;;;;2.30;68.48;99828.06;10324961;28;20069;-71
2021/01/25 23:21:11;;;;;;;17.38;13.60;;;;;;;2.34;68.55;99823.50;10327977;28;20078;-73
2021/01/25 23:26:19;;;;;;;15.40;12.73;;;;;;;2.23;69.38;99837.19;10312590;28;20058;-70